createdAt,value
2017-12-24T00:00:29.023Z,98.97
2017-12-24T00:01:28.767Z,98.31
2017-12-24T00:02:28.905Z,98.69
2017-12-24T00:03:28.585Z,99.45
2017-12-24T00:04:28.933Z,99.99
2017-12-24T00:05:29.012Z,99.99
2017-12-24T00:06:28.603Z,99.84
2017-12-24T00:07:29.015Z,99.55
2017-12-24T00:08:28.682Z,99.26
2017-12-24T00:09:30.051Z,99.26
2017-12-24T00:10:28.575Z,99.45
2017-12-24T00:11:28.933Z,98.97
2017-12-24T00:12:28.613Z,99.99
2017-12-24T00:13:29.955Z,99.99
2017-12-24T00:14:28.690Z,99.93
2017-12-24T00:15:28.905Z,99.64
2017-12-24T00:16:28.549Z,99.55
2017-12-24T00:17:28.884Z,98.88
2017-12-24T00:18:28.954Z,98.69
2017-12-24T00:19:28.834Z,99.07
2017-12-24T00:20:28.738Z,99.93
2017-12-24T00:21:28.473Z,99.93
2017-12-24T00:22:28.491Z,99.99
2017-12-24T00:23:28.713Z,99.99
2017-12-24T00:24:28.461Z,99.99
2017-12-24T00:25:28.719Z,99.99
2017-12-24T00:26:28.702Z,99.99
2017-12-24T00:27:28.829Z,99.55
2017-12-24T00:28:28.705Z,99.55
2017-12-24T00:29:28.686Z,99.26
2017-12-24T00:30:28.431Z,98.88
2017-12-24T00:31:28.682Z,98.79
2017-12-24T00:32:28.423Z,98.69
2017-12-24T00:33:28.674Z,98.03
2017-12-24T00:34:28.669Z,98.31
2017-12-24T00:35:28.667Z,98.5
2017-12-24T00:36:28.416Z,98.5
2017-12-24T00:37:28.652Z,98.88
2017-12-24T00:38:28.650Z,99.07
2017-12-24T00:39:28.651Z,98.22
2017-12-24T00:40:28.398Z,98.97
2017-12-24T00:41:28.635Z,98.69
2017-12-24T00:42:28.634Z,97.93
2017-12-24T00:43:28.372Z,97.74
2017-12-24T00:44:28.634Z,98.5
2017-12-24T00:45:28.841Z,98.88
2017-12-24T00:46:28.630Z,98.69
2017-12-24T00:47:28.617Z,97.27
2017-12-24T00:48:28.651Z,96.69
2017-12-24T00:49:28.596Z,96.6
2017-12-24T00:50:28.592Z,96.6
2017-12-24T00:51:28.588Z,96.5
2017-12-24T00:52:28.337Z,96.41
2017-12-24T00:53:28.351Z,96.5
2017-12-24T00:54:28.572Z,96.5
2017-12-24T00:55:28.569Z,96.41
2017-12-24T00:56:28.562Z,96.6
2017-12-24T00:57:28.305Z,97.64
2017-12-24T00:58:28.300Z,97.83
2017-12-24T00:59:28.553Z,98.88
2017-12-24T01:00:28.558Z,98.69
2017-12-24T01:01:28.544Z,99.07
2017-12-24T01:02:28.546Z,98.69
2017-12-24T01:03:28.540Z,98.31
2017-12-24T01:04:28.536Z,97.74
2017-12-24T01:05:28.518Z,98.12
2017-12-24T01:06:28.514Z,97.08
2017-12-24T01:07:28.515Z,97.74
2017-12-24T01:08:28.261Z,98.5
2017-12-24T01:09:28.503Z,98.69
2017-12-24T01:10:28.499Z,99.07
2017-12-24T01:11:28.238Z,99.74
2017-12-24T01:12:28.233Z,99.84
2017-12-24T01:13:28.482Z,98.69
2017-12-24T01:14:28.483Z,99.36
2017-12-24T01:15:28.479Z,98.88
2017-12-24T01:16:28.465Z,98.88
2017-12-24T01:17:28.214Z,97.93
2017-12-24T01:18:28.212Z,98.12
2017-12-24T01:19:28.452Z,98.12
2017-12-24T01:20:28.458Z,97.74
2017-12-24T01:21:28.188Z,98.12
2017-12-24T01:22:28.439Z,98.69
2017-12-24T01:23:28.435Z,99.07
2017-12-24T01:24:28.427Z,98.88
2017-12-24T01:25:28.169Z,98.6
2017-12-24T01:26:28.423Z,99.55
2017-12-24T01:27:28.160Z,99.07
2017-12-24T01:28:28.412Z,98.88
2017-12-24T01:29:28.552Z,98.79
2017-12-24T01:30:28.399Z,98.22
2017-12-24T01:31:28.140Z,97.64
2017-12-24T01:32:28.134Z,97.74
2017-12-24T01:33:28.382Z,97.45
2017-12-24T01:34:28.379Z,98.31
2017-12-24T01:35:28.376Z,97.83
2017-12-24T01:36:28.366Z,98.97
2017-12-24T01:37:28.363Z,98.88
2017-12-24T01:38:28.358Z,98.97
2017-12-24T01:39:28.352Z,98.5
2017-12-24T01:40:28.101Z,99.36
2017-12-24T01:41:28.092Z,98.79
2017-12-24T01:42:28.341Z,98.88
2017-12-24T01:43:28.079Z,98.88
2017-12-24T01:44:29.816Z,98.97
2017-12-24T01:45:28.323Z,97.93
2017-12-24T01:46:28.323Z,98.5
2017-12-24T01:47:28.312Z,98.69
2017-12-24T01:48:28.058Z,98.41
2017-12-24T01:49:28.319Z,97.27
2017-12-24T01:50:28.520Z,97.36
2017-12-24T01:51:28.338Z,96.69
2017-12-24T01:52:28.142Z,97.64
2017-12-24T01:53:28.046Z,97.93
2017-12-24T01:54:28.143Z,98.5
2017-12-24T01:55:28.115Z,98.69
2017-12-24T01:56:28.362Z,99.07
2017-12-24T01:57:28.348Z,98.5
2017-12-24T01:58:28.075Z,97.36
2017-12-24T01:59:28.364Z,97.08
2017-12-24T02:00:28.351Z,97.45
2017-12-24T02:01:28.055Z,97.83
2017-12-24T02:02:28.326Z,98.5
2017-12-24T02:03:28.298Z,97.55
2017-12-24T02:04:28.355Z,96.6
2017-12-24T02:05:28.311Z,96.69
2017-12-24T02:06:28.315Z,97.17
2017-12-24T02:07:28.219Z,97.27
2017-12-24T02:08:28.214Z,98.31
2017-12-24T02:09:28.217Z,98.88
2017-12-24T02:10:28.210Z,98.12
2017-12-24T02:11:27.949Z,97.17
2017-12-24T02:12:28.198Z,96.89
2017-12-24T02:13:27.940Z,96.79
2017-12-24T02:14:28.180Z,97.55
2017-12-24T02:15:27.924Z,97.17
2017-12-24T02:16:27.918Z,97.83
2017-12-24T02:17:28.171Z,98.12
2017-12-24T02:18:28.167Z,97.55
2017-12-24T02:19:27.903Z,98.31
2017-12-24T02:20:27.916Z,98.69
2017-12-24T02:21:28.160Z,98.12
2017-12-24T02:22:27.893Z,98.69
2017-12-24T02:23:28.142Z,98.69
2017-12-24T02:24:28.138Z,98.03
2017-12-24T02:25:28.136Z,97.27
2017-12-24T02:26:28.122Z,97.08
2017-12-24T02:27:27.867Z,98.22
2017-12-24T02:28:28.112Z,98.12
2017-12-24T02:29:28.121Z,98.12
2017-12-24T02:30:31.306Z,98.03
2017-12-24T02:31:28.101Z,97.83
2017-12-24T02:32:27.845Z,98.69
2017-12-24T02:33:28.095Z,98.88
2017-12-24T02:34:28.084Z,99.07
2017-12-24T02:35:28.092Z,99.84
2017-12-24T02:36:28.084Z,99.45
2017-12-24T02:37:28.075Z,98.97
2017-12-24T02:38:28.066Z,98.41
2017-12-24T02:39:28.058Z,98.22
2017-12-24T02:40:28.058Z,97.45
2017-12-24T02:41:28.051Z,98.5
2017-12-24T02:42:28.044Z,98.79
2017-12-24T02:43:28.041Z,98.97
2017-12-24T02:44:27.787Z,98.6
2017-12-24T02:45:27.974Z,98.97
2017-12-24T02:46:28.035Z,98.69
2017-12-24T02:47:28.025Z,99.36
2017-12-24T02:48:27.762Z,98.97
2017-12-24T02:49:28.014Z,98.31
2017-12-24T02:50:27.763Z,98.22
2017-12-24T02:51:28.003Z,98.88
2017-12-24T02:52:27.744Z,99.74
2017-12-24T02:53:27.991Z,99.99
2017-12-24T02:54:27.985Z,99.99
2017-12-24T02:55:27.983Z,99.99
2017-12-24T02:56:27.977Z,99.93
2017-12-24T02:57:27.972Z,99.99
2017-12-24T02:58:27.967Z,99.74
2017-12-24T02:59:27.710Z,99.99
2017-12-24T03:00:27.705Z,99.55
2017-12-24T03:01:27.955Z,99.84
2017-12-24T03:02:27.953Z,99.93
2017-12-24T03:03:27.994Z,99.84
2017-12-24T03:04:27.755Z,99.99
2017-12-24T03:05:27.932Z,99.99
2017-12-24T03:06:27.929Z,99.64
2017-12-24T03:07:27.923Z,99.99
2017-12-24T03:08:27.919Z,99.64
2017-12-24T03:09:27.913Z,99.64
2017-12-24T03:10:27.907Z,99.99
2017-12-24T03:11:27.649Z,99.07
2017-12-24T03:12:27.647Z,98.88
2017-12-24T03:13:27.894Z,99.07
2017-12-24T03:14:27.897Z,98.5
2017-12-24T03:15:27.882Z,98.69
2017-12-24T03:16:27.879Z,99.99
2017-12-24T03:17:27.881Z,99.74
2017-12-24T03:18:27.872Z,99.93
2017-12-24T03:19:27.867Z,99.99
2017-12-24T03:20:27.624Z,99.99
2017-12-24T03:21:27.606Z,99.99
2017-12-24T03:22:27.859Z,99.99
2017-12-24T03:23:27.842Z,99.99
2017-12-24T03:24:27.839Z,99.99
2017-12-24T03:25:27.838Z,99.99
2017-12-24T03:26:27.577Z,99.99
2017-12-24T03:27:27.829Z,99.99
2017-12-24T03:28:27.829Z,99.99
2017-12-24T03:29:27.820Z,99.99
2017-12-24T03:30:27.813Z,99.99
2017-12-24T03:31:27.812Z,99.99
2017-12-24T03:32:27.801Z,99.99
2017-12-24T03:33:27.793Z,99.99
2017-12-24T03:34:27.537Z,99.99
2017-12-24T03:35:27.797Z,99.84
2017-12-24T03:36:27.825Z,98.41
2017-12-24T03:37:27.855Z,98.41
2017-12-24T03:38:27.770Z,99.07
2017-12-24T03:39:27.771Z,99.99
2017-12-24T03:40:27.770Z,99.36
2017-12-24T03:41:27.768Z,99.99
2017-12-24T03:42:27.754Z,99.99
2017-12-24T03:43:27.749Z,99.99
2017-12-24T03:44:27.741Z,99.99
2017-12-24T03:45:27.734Z,98.69
2017-12-24T03:46:27.738Z,98.69
2017-12-24T03:47:27.724Z,98.97
2017-12-24T03:48:27.724Z,98.69
2017-12-24T03:49:27.728Z,99.07
2017-12-24T03:50:27.713Z,98.31
2017-12-24T03:51:27.710Z,98.5
2017-12-24T03:52:27.703Z,99.16
2017-12-24T03:53:27.752Z,98.97
2017-12-24T03:54:27.441Z,98.88
2017-12-24T03:55:27.694Z,98.88
2017-12-24T03:56:27.694Z,98.97
2017-12-24T03:57:27.680Z,98.88
2017-12-24T03:58:27.679Z,99.64
2017-12-24T03:59:27.419Z,99.99
2017-12-24T04:00:27.666Z,99.99
2017-12-24T04:01:29.522Z,99.99
2017-12-24T04:02:27.664Z,99.99
2017-12-24T04:03:27.658Z,99.99
2017-12-24T04:04:27.654Z,99.99
2017-12-24T04:05:27.642Z,99.99
2017-12-24T04:06:27.641Z,99.99
2017-12-24T04:07:27.644Z,99.99
2017-12-24T04:08:27.633Z,99.99
2017-12-24T04:09:27.370Z,99.99
2017-12-24T04:10:27.619Z,99.99
2017-12-24T04:11:27.612Z,99.99
2017-12-24T04:12:27.610Z,99.99
2017-12-24T04:13:27.603Z,99.99
2017-12-24T04:14:27.599Z,99.99
2017-12-24T04:15:27.596Z,99.99
2017-12-24T04:16:27.589Z,99.99
2017-12-24T04:17:27.585Z,99.99
2017-12-24T04:18:27.585Z,99.99
2017-12-24T04:19:27.585Z,99.99
2017-12-24T04:20:27.582Z,99.99
2017-12-24T04:21:27.314Z,99.99
2017-12-24T04:22:27.565Z,99.99
2017-12-24T04:23:27.562Z,99.99
2017-12-24T04:24:27.552Z,99.99
2017-12-24T04:25:27.307Z,99.99
2017-12-24T04:26:27.547Z,99.99
2017-12-24T04:27:27.285Z,99.99
2017-12-24T04:28:27.535Z,99.99
2017-12-24T04:29:27.533Z,99.99
2017-12-24T04:30:27.272Z,99.99
2017-12-24T04:31:27.518Z,99.99
2017-12-24T04:32:27.518Z,99.99
2017-12-24T04:33:27.508Z,99.99
2017-12-24T04:34:27.505Z,99.99
2017-12-24T04:35:27.497Z,99.99
2017-12-24T04:36:27.495Z,99.99
2017-12-24T04:37:27.492Z,99.99
2017-12-24T04:38:27.484Z,99.99
2017-12-24T04:39:27.480Z,99.99
2017-12-24T04:40:27.475Z,99.99
2017-12-24T04:41:27.469Z,99.99
2017-12-24T04:42:27.472Z,99.99
2017-12-24T04:43:27.465Z,99.99
2017-12-24T04:44:27.455Z,99.99
2017-12-24T04:45:27.449Z,99.99
2017-12-24T04:46:27.447Z,99.99
2017-12-24T04:47:27.442Z,99.99
2017-12-24T04:48:27.432Z,99.99
2017-12-24T04:49:27.430Z,99.99
2017-12-24T04:50:27.427Z,99.99
2017-12-24T04:51:27.417Z,99.99
2017-12-24T04:52:27.414Z,99.99
2017-12-24T04:53:27.410Z,99.99
2017-12-24T04:54:27.403Z,99.99
2017-12-24T04:55:27.399Z,99.99
2017-12-24T04:56:27.142Z,99.99
2017-12-24T04:57:27.390Z,99.99
2017-12-24T04:58:27.382Z,99.99
2017-12-24T04:59:27.379Z,99.99
2017-12-24T05:00:27.372Z,99.99
2017-12-24T05:01:27.616Z,99.99
2017-12-24T05:02:27.371Z,99.99
2017-12-24T05:03:27.363Z,99.99
2017-12-24T05:04:27.349Z,99.99
2017-12-24T05:05:27.348Z,99.99
2017-12-24T05:06:27.352Z,99.99
2017-12-24T05:07:27.339Z,99.99
2017-12-24T05:08:27.333Z,99.99
2017-12-24T05:09:27.329Z,99.99
2017-12-24T05:10:27.068Z,99.99
2017-12-24T05:11:27.060Z,99.99
2017-12-24T05:12:27.055Z,99.99
2017-12-24T05:13:27.312Z,99.99
2017-12-24T05:14:27.299Z,99.99
2017-12-24T05:15:27.312Z,99.99
2017-12-24T05:16:27.290Z,99.99
2017-12-24T05:17:27.031Z,99.99
2017-12-24T05:18:27.281Z,99.99
2017-12-24T05:19:27.284Z,99.99
2017-12-24T05:20:27.280Z,99.99
2017-12-24T05:21:27.280Z,99.99
2017-12-24T05:22:27.264Z,99.99
2017-12-24T05:23:27.257Z,99.99
2017-12-24T05:24:27.254Z,99.99
2017-12-24T05:25:27.260Z,99.99
2017-12-24T05:26:27.022Z,99.99
2017-12-24T05:27:27.251Z,99.99
2017-12-24T05:28:27.243Z,99.99
2017-12-24T05:29:27.241Z,99.99
2017-12-24T05:30:27.224Z,99.99
2017-12-24T05:31:27.222Z,99.99
2017-12-24T05:32:26.957Z,99.99
2017-12-24T05:33:27.207Z,99.99
2017-12-24T05:34:27.210Z,99.99
2017-12-24T05:35:27.198Z,99.99
2017-12-24T05:36:27.204Z,99.99
2017-12-24T05:37:27.190Z,99.99
2017-12-24T05:38:27.188Z,99.99
2017-12-24T05:39:27.177Z,99.99
2017-12-24T05:40:27.186Z,99.99
2017-12-24T05:41:27.179Z,99.99
2017-12-24T05:42:26.915Z,99.99
2017-12-24T05:43:27.156Z,99.99
2017-12-24T05:44:27.148Z,99.99
2017-12-24T05:45:27.142Z,99.99
2017-12-24T05:46:27.138Z,99.99
2017-12-24T05:47:27.135Z,99.99
2017-12-24T05:48:27.127Z,99.99
2017-12-24T05:49:27.121Z,99.99
2017-12-24T05:50:27.162Z,99.99
2017-12-24T05:51:27.111Z,99.99
2017-12-24T05:52:27.107Z,99.99
2017-12-24T05:53:27.103Z,99.99
2017-12-24T05:54:27.097Z,99.99
2017-12-24T05:55:27.091Z,99.99
2017-12-24T05:56:27.090Z,99.99
2017-12-24T05:57:27.082Z,99.99
2017-12-24T05:58:27.084Z,99.99
2017-12-24T05:59:27.068Z,99.99
2017-12-24T06:00:27.068Z,99.99
2017-12-24T06:01:27.075Z,99.99
2017-12-24T06:02:27.053Z,99.99
2017-12-24T06:03:27.046Z,99.99
2017-12-24T06:04:26.793Z,99.99
2017-12-24T06:05:26.783Z,99.99
2017-12-24T06:06:27.050Z,99.99
2017-12-24T06:07:27.027Z,99.99
2017-12-24T06:08:26.769Z,99.99
2017-12-24T06:09:27.015Z,99.99
2017-12-24T06:10:27.009Z,99.99
2017-12-24T06:11:26.753Z,99.99
2017-12-24T06:12:27.000Z,99.99
2017-12-24T06:13:26.994Z,99.99
2017-12-24T06:14:26.988Z,99.99
2017-12-24T06:15:26.982Z,99.99
2017-12-24T06:16:26.979Z,99.99
2017-12-24T06:17:26.973Z,99.99
2017-12-24T06:18:26.968Z,99.99
2017-12-24T06:19:26.961Z,99.99
2017-12-24T06:20:26.954Z,99.99
2017-12-24T06:21:26.697Z,99.99
2017-12-24T06:22:26.947Z,99.99
2017-12-24T06:23:26.689Z,99.99
2017-12-24T06:24:26.933Z,99.99
2017-12-24T06:25:26.933Z,99.99
2017-12-24T06:26:26.943Z,99.99
2017-12-24T06:27:26.917Z,99.99
2017-12-24T06:28:26.912Z,99.99
2017-12-24T06:29:26.910Z,99.99
2017-12-24T06:30:26.657Z,99.99
2017-12-24T06:31:26.905Z,99.99
2017-12-24T06:32:26.889Z,99.99
2017-12-24T06:33:26.890Z,99.99
2017-12-24T06:34:26.939Z,99.99
2017-12-24T06:35:26.880Z,99.99
2017-12-24T06:36:26.870Z,99.99
2017-12-24T06:37:26.869Z,99.99
2017-12-24T06:38:26.865Z,99.99
2017-12-24T06:39:26.601Z,99.99
2017-12-24T06:40:26.858Z,99.99
2017-12-24T06:41:26.851Z,99.99
2017-12-24T06:42:26.851Z,99.99
2017-12-24T06:43:26.586Z,99.99
2017-12-24T06:44:26.582Z,99.97
2017-12-24T06:45:26.866Z,99.97
2017-12-24T06:46:26.811Z,99.99
2017-12-24T06:47:26.825Z,99.99
2017-12-24T06:48:26.814Z,99.99
2017-12-24T06:49:26.813Z,99.99
2017-12-24T06:50:26.817Z,99.99
2017-12-24T06:51:26.557Z,99.99
2017-12-24T06:52:26.804Z,99.99
2017-12-24T06:53:26.802Z,99.99
2017-12-24T06:54:26.793Z,99.99
2017-12-24T06:55:26.783Z,99.99
2017-12-24T06:56:26.783Z,99.99
2017-12-24T06:57:26.770Z,99.99
2017-12-24T06:58:26.768Z,99.99
2017-12-24T06:59:26.772Z,99.99
2017-12-24T07:00:26.762Z,99.99
2017-12-24T07:01:26.755Z,99.99
2017-12-24T07:02:31.547Z,99.99
2017-12-24T07:03:26.747Z,99.99
2017-12-24T07:04:26.749Z,99.99
2017-12-24T07:05:26.476Z,99.99
2017-12-24T07:06:26.729Z,99.99
2017-12-24T07:07:26.729Z,99.99
2017-12-24T07:08:26.701Z,99.99
2017-12-24T07:09:26.466Z,99.99
2017-12-24T07:10:26.711Z,99.99
2017-12-24T07:11:26.433Z,99.99
2017-12-24T07:12:26.690Z,99.99
2017-12-24T07:13:26.698Z,99.99
2017-12-24T07:14:26.424Z,99.99
2017-12-24T07:15:26.684Z,99.99
2017-12-24T07:16:26.654Z,99.99
2017-12-24T07:17:26.669Z,99.99
2017-12-24T07:18:26.649Z,99.99
2017-12-24T07:19:26.640Z,99.99
2017-12-24T07:20:26.638Z,99.99
2017-12-24T07:21:26.644Z,99.99
2017-12-24T07:22:26.372Z,99.99
2017-12-24T07:23:26.628Z,99.99
2017-12-24T07:24:26.630Z,99.97
2017-12-24T07:25:26.618Z,99.88
2017-12-24T07:26:26.631Z,99.99
2017-12-24T07:27:26.599Z,99.99
2017-12-24T07:28:26.619Z,99.99
2017-12-24T07:29:26.595Z,99.99
2017-12-24T07:30:26.592Z,99.99
2017-12-24T07:31:26.339Z,99.99
2017-12-24T07:32:26.579Z,99.99
2017-12-24T07:33:26.565Z,99.99
2017-12-24T07:34:26.560Z,99.99
2017-12-24T07:35:26.548Z,99.99
2017-12-24T07:36:26.544Z,99.99
2017-12-24T07:37:26.590Z,99.99
2017-12-24T07:38:26.540Z,99.69
2017-12-24T07:39:26.530Z,99.99
2017-12-24T07:40:26.544Z,99.99
2017-12-24T07:41:26.524Z,99.97
2017-12-24T07:42:26.524Z,99.99
2017-12-24T07:43:26.508Z,99.99
2017-12-24T07:44:26.540Z,99.11
2017-12-24T07:45:26.492Z,98.83
2017-12-24T07:46:26.498Z,98.55
2017-12-24T07:47:26.483Z,98.36
2017-12-24T07:48:26.474Z,98.64
2017-12-24T07:49:26.471Z,98.26
2017-12-24T07:50:26.467Z,98.36
2017-12-24T07:51:26.464Z,99.21
2017-12-24T07:52:26.465Z,99.02
2017-12-24T07:53:26.468Z,98.93
2017-12-24T07:54:26.194Z,98.93
2017-12-24T07:55:26.442Z,99.99
2017-12-24T07:56:26.182Z,99.88
2017-12-24T07:57:26.175Z,99.3
2017-12-24T07:58:26.447Z,98.45
2017-12-24T07:59:26.417Z,99.21
2017-12-24T08:00:26.416Z,99.02
2017-12-24T08:01:26.406Z,99.99
2017-12-24T08:02:26.412Z,99.99
2017-12-24T08:03:31.095Z,99.78
2017-12-24T08:04:26.138Z,98.55
2017-12-24T08:05:26.384Z,97.78
2017-12-24T08:06:26.379Z,97.41
2017-12-24T08:07:26.374Z,98.07
2017-12-24T08:08:26.372Z,97.78
2017-12-24T08:09:26.364Z,98.64
2017-12-24T08:10:26.358Z,98.93
2017-12-24T08:11:26.353Z,97.31
2017-12-24T08:12:26.356Z,97.41
2017-12-24T08:13:26.353Z,97.12
2017-12-24T08:14:26.082Z,97.22
2017-12-24T08:15:26.332Z,97.88
2017-12-24T08:16:26.324Z,97.41
2017-12-24T08:17:26.069Z,96.84
2017-12-24T08:18:26.314Z,96.93
2017-12-24T08:19:26.308Z,96.26
2017-12-24T08:20:26.312Z,95.89
2017-12-24T08:21:26.300Z,95.51
2017-12-24T08:22:26.300Z,96.55
2017-12-24T08:23:26.293Z,96.84
2017-12-24T08:24:26.032Z,95.75
2017-12-24T08:25:26.281Z,96.98
2017-12-24T08:26:26.275Z,97.45
2017-12-24T08:27:26.274Z,98.12
2017-12-24T08:28:26.267Z,97.45
2017-12-24T08:29:26.256Z,96.79
2017-12-24T08:30:26.251Z,95.84
2017-12-24T08:31:25.995Z,95.65
2017-12-24T08:32:26.248Z,95.08
2017-12-24T08:33:26.242Z,95.27
2017-12-24T08:34:27.289Z,95.36
2017-12-24T08:35:25.976Z,94.6
2017-12-24T08:36:26.221Z,94.13
2017-12-24T08:37:26.219Z,94.89
2017-12-24T08:38:26.216Z,94.7
2017-12-24T08:39:26.211Z,94.13
2017-12-24T08:40:26.201Z,93.18
2017-12-24T08:41:26.200Z,93.46
2017-12-24T08:42:26.192Z,94.32
2017-12-24T08:43:26.192Z,92.99
2017-12-24T08:44:26.190Z,92.32
2017-12-24T08:45:26.180Z,92.51
2017-12-24T08:46:26.181Z,93.27
2017-12-24T08:47:25.917Z,92.61
2017-12-24T08:48:26.163Z,92.03
2017-12-24T08:49:26.159Z,92.41
2017-12-24T08:50:25.905Z,92.22
2017-12-24T08:51:26.158Z,91.56
2017-12-24T08:52:26.146Z,90.99
2017-12-24T08:53:26.165Z,91.85
2017-12-24T08:54:26.137Z,91.66
2017-12-24T08:55:26.140Z,91.47
2017-12-24T08:56:25.879Z,90.52
2017-12-24T08:57:25.867Z,90.7
2017-12-24T08:58:26.113Z,90.52
2017-12-24T08:59:26.112Z,90.23
2017-12-24T09:00:26.271Z,90.33
2017-12-24T09:01:26.103Z,90.33
2017-12-24T09:02:26.098Z,90.42
2017-12-24T09:03:26.110Z,90.7
2017-12-24T09:04:26.090Z,90.42
2017-12-24T09:05:26.091Z,90.61
2017-12-24T09:06:26.089Z,90.14
2017-12-24T09:07:26.084Z,90.23
2017-12-24T09:08:25.817Z,90.42
2017-12-24T09:09:25.816Z,89.37
2017-12-24T09:10:26.062Z,89.75
2017-12-24T09:11:26.059Z,89.75
2017-12-24T09:12:26.053Z,89.37
2017-12-24T09:13:26.046Z,89.75
2017-12-24T09:14:26.052Z,89.75
2017-12-24T09:15:26.049Z,90.37
2017-12-24T09:16:26.036Z,90.37
2017-12-24T09:17:26.030Z,89.61
2017-12-24T09:18:25.774Z,89.42
2017-12-24T09:19:25.769Z,89.51
2017-12-24T09:20:26.019Z,90.56
2017-12-24T09:21:25.775Z,89.89
2017-12-24T09:22:25.755Z,89.99
2017-12-24T09:23:26.009Z,89.99
2017-12-24T09:24:25.999Z,90.18
2017-12-24T09:25:26.006Z,90.28
2017-12-24T09:26:26.002Z,90.75
2017-12-24T09:27:25.986Z,90.66
2017-12-24T09:28:25.730Z,90.56
2017-12-24T09:29:25.977Z,89.61
2017-12-24T09:30:25.983Z,88.37
2017-12-24T09:31:25.972Z,88.33
2017-12-24T09:32:25.968Z,88.85
2017-12-24T09:33:26.025Z,89
2017-12-24T09:34:25.958Z,89
2017-12-24T09:35:25.950Z,89.75
2017-12-24T09:36:25.964Z,89.47
2017-12-24T09:37:25.697Z,89.7
2017-12-24T09:38:25.963Z,90.08
2017-12-24T09:39:25.942Z,88.94
2017-12-24T09:40:25.681Z,87.52
2017-12-24T09:41:25.946Z,87.52
2017-12-24T09:42:25.932Z,87.99
2017-12-24T09:43:25.927Z,87.52
2017-12-24T09:44:25.920Z,87.9
2017-12-24T09:45:25.912Z,88.18
2017-12-24T09:46:25.654Z,88.46
2017-12-24T09:47:25.652Z,87.8
2017-12-24T09:48:25.647Z,87.42
2017-12-24T09:49:25.892Z,87.71
2017-12-24T09:50:25.896Z,88.75
2017-12-24T09:51:25.887Z,89.04
2017-12-24T09:52:25.631Z,88.66
2017-12-24T09:53:25.877Z,87.71
2017-12-24T09:54:25.880Z,87.23
2017-12-24T09:55:25.620Z,87.71
2017-12-24T09:56:25.869Z,88.28
2017-12-24T09:57:25.864Z,87.71
2017-12-24T09:58:25.860Z,87.42
2017-12-24T09:59:25.857Z,87.71
2017-12-24T10:00:25.858Z,86.94
2017-12-24T10:01:25.597Z,86.94
2017-12-24T10:02:25.593Z,87.04
2017-12-24T10:03:25.843Z,87.23
2017-12-24T10:04:25.840Z,87.04
2017-12-24T10:05:25.840Z,87.32
2017-12-24T10:06:25.905Z,86.47
2017-12-24T10:07:25.821Z,86.18
2017-12-24T10:08:25.568Z,86.18
2017-12-24T10:09:25.816Z,86.28
2017-12-24T10:10:25.812Z,86.09
2017-12-24T10:11:25.809Z,85.99
2017-12-24T10:12:25.802Z,85.99
2017-12-24T10:13:25.804Z,87.23
2017-12-24T10:14:25.798Z,87.61
2017-12-24T10:15:25.798Z,87.71
2017-12-24T10:16:25.535Z,87.9
2017-12-24T10:17:25.796Z,86.76
2017-12-24T10:18:25.530Z,87.13
2017-12-24T10:19:25.787Z,87.32
2017-12-24T10:20:25.779Z,87.13
2017-12-24T10:21:25.770Z,85.04
2017-12-24T10:22:25.766Z,85.33
2017-12-24T10:52:53.455Z,82.32
2017-12-24T10:53:53.440Z,82.14
2017-12-24T10:54:53.426Z,81.85
2017-12-24T10:55:53.418Z,82.14
2017-12-24T10:56:53.414Z,82.23
2017-12-24T10:57:53.399Z,82.32
2017-12-24T10:58:53.399Z,82.7
2017-12-24T10:59:53.452Z,82.99
2017-12-24T11:00:53.382Z,82.8
2017-12-24T11:01:53.431Z,83.47
2017-12-24T11:02:53.364Z,84.23
2017-12-24T11:03:53.114Z,83.94
2017-12-24T11:04:53.358Z,82.9
2017-12-24T11:05:53.096Z,82.32
2017-12-24T11:06:53.351Z,82.04
2017-12-24T11:07:55.095Z,82.04
2017-12-24T11:08:53.101Z,82.61
2017-12-24T11:09:53.098Z,81.85
2017-12-24T11:10:53.325Z,82.42
2017-12-24T11:11:53.323Z,82.51
2017-12-24T11:12:53.317Z,82.61
2017-12-24T11:13:53.312Z,82.9
2017-12-24T11:14:53.054Z,83.09
2017-12-24T11:15:53.317Z,83.75
2017-12-24T11:16:53.305Z,83.56
2017-12-24T11:17:53.050Z,82.9
2017-12-24T11:18:53.297Z,82.9
2017-12-24T11:19:53.037Z,81.95
2017-12-24T11:20:53.288Z,82.04
2017-12-24T11:21:53.284Z,81.47
2017-12-24T11:22:53.281Z,82.04
2017-12-24T11:23:53.273Z,82.04
2017-12-24T11:24:53.269Z,81.85
2017-12-24T11:25:53.267Z,81.47
2017-12-24T11:26:53.265Z,82.04
2017-12-24T11:27:53.009Z,82.7
2017-12-24T11:28:53.256Z,82.51
2017-12-24T11:29:53.254Z,83.18
2017-12-24T11:30:53.261Z,83.65
2017-12-24T11:31:53.247Z,83.56
2017-12-24T11:32:52.997Z,81.95
2017-12-24T11:33:53.241Z,81.18
2017-12-24T11:34:53.238Z,81.47
2017-12-24T11:35:53.235Z,81.66
2017-12-24T11:36:53.244Z,81.66
2017-12-24T11:37:52.974Z,81.95
2017-12-24T11:38:52.982Z,81.95
2017-12-24T11:39:53.224Z,82.42
2017-12-24T11:40:53.216Z,82.7
2017-12-24T11:41:53.216Z,82.51
2017-12-24T11:42:53.218Z,82.04
2017-12-24T11:43:53.205Z,82.04
2017-12-24T11:44:53.209Z,81.95
2017-12-24T11:45:53.201Z,81.56
2017-12-24T11:46:52.942Z,81.18
2017-12-24T11:47:53.200Z,81.37
2017-12-24T11:48:53.203Z,82.42
2017-12-24T11:49:53.196Z,82.7
2017-12-24T11:50:53.268Z,83.47
2017-12-24T11:51:53.181Z,82.7
2017-12-24T11:52:52.924Z,82.04
2017-12-24T11:53:53.174Z,82.9
2017-12-24T11:54:53.170Z,83.09
2017-12-24T11:55:53.172Z,82.8
2017-12-24T11:56:53.166Z,82.04
2017-12-24T11:57:53.168Z,81.76
2017-12-24T11:58:53.160Z,82.23
2017-12-24T11:59:53.167Z,82.42
2017-12-24T12:00:53.149Z,82.14
2017-12-24T12:01:53.158Z,81.56
2017-12-24T12:02:53.149Z,82.23
2017-12-24T12:03:53.151Z,82.14
2017-12-24T12:04:53.166Z,82.23
2017-12-24T12:05:53.151Z,81.95
2017-12-24T12:06:53.144Z,81.95
2017-12-24T12:07:53.148Z,82.04
2017-12-24T12:08:56.876Z,82.14
2017-12-24T12:09:52.893Z,82.8
2017-12-24T12:10:53.130Z,83.28
2017-12-24T12:11:53.122Z,83.56
2017-12-24T12:12:53.114Z,82.61
2017-12-24T12:13:53.123Z,82.14
2017-12-24T12:14:52.858Z,82.8
2017-12-24T12:15:53.117Z,83.28
2017-12-24T12:16:52.853Z,83.28
2017-12-24T12:17:53.107Z,82.23
2017-12-24T12:18:53.098Z,81.47
2017-12-24T12:19:53.103Z,82.23
2017-12-24T12:20:52.845Z,81.85
2017-12-24T12:21:52.829Z,82.04
2017-12-24T12:22:53.079Z,81.95
2017-12-24T12:23:52.837Z,82.61
2017-12-24T12:24:52.819Z,82.51
2017-12-24T12:25:53.068Z,82.42
2017-12-24T12:26:53.074Z,83.28
2017-12-24T12:27:53.071Z,82.7
2017-12-24T12:28:53.073Z,82.51
2017-12-24T12:29:53.068Z,82.61
2017-12-24T12:30:53.058Z,82.42
2017-12-24T12:31:53.056Z,82.04
2017-12-24T12:32:53.052Z,82.14
2017-12-24T12:33:53.110Z,82.61
2017-12-24T12:34:52.802Z,82.51
2017-12-24T12:35:53.037Z,82.61
2017-12-24T12:36:53.039Z,83.75
2017-12-24T12:37:52.779Z,83.47
2017-12-24T12:38:53.026Z,83.94
2017-12-24T12:39:53.026Z,84.04
2017-12-24T12:40:53.023Z,83.75
2017-12-24T12:41:53.020Z,83.56
2017-12-24T12:42:52.763Z,83.75
2017-12-24T12:43:53.023Z,84.04
2017-12-24T12:44:53.005Z,84.89
2017-12-24T12:45:52.753Z,84.52
2017-12-24T12:46:53.001Z,85.37
2017-12-24T12:47:53.001Z,83.56
2017-12-24T12:48:52.994Z,83.37
2017-12-24T12:49:52.988Z,83.47
2017-12-24T12:50:52.997Z,82.8
2017-12-24T12:51:52.731Z,82.99
2017-12-24T12:52:52.980Z,83.37
2017-12-24T12:53:52.979Z,83.09
2017-12-24T12:54:52.723Z,83.85
2017-12-24T12:55:52.967Z,83.65
2017-12-24T12:56:52.964Z,84.23
2017-12-24T12:57:52.976Z,84.7
2017-12-24T12:58:52.706Z,84.23
2017-12-24T12:59:52.954Z,83.65
2017-12-24T13:00:52.701Z,83.09
2017-12-24T13:01:52.957Z,82.99
2017-12-24T13:02:52.947Z,82.61
2017-12-24T13:03:52.949Z,83.37
2017-12-24T13:04:52.938Z,83.85
2017-12-24T13:05:52.936Z,83.75
2017-12-24T13:06:52.942Z,84.61
2017-12-24T13:07:52.687Z,84.8
2017-12-24T13:08:52.929Z,84.13
2017-12-24T13:09:52.927Z,84.61
2017-12-24T13:10:52.918Z,85.56
2017-12-24T13:11:52.668Z,85.37
2017-12-24T13:12:52.915Z,86.51
2017-12-24T13:13:52.911Z,87.56
2017-12-24T13:14:52.905Z,86.61
2017-12-24T13:15:52.654Z,86.42
2017-12-24T13:16:52.646Z,86.99
2017-12-24T13:17:52.896Z,87.23
2017-12-24T13:18:52.898Z,87.52
2017-12-24T13:19:52.885Z,88.18
2017-12-24T13:20:52.882Z,88.66
2017-12-24T13:21:52.886Z,88.28
2017-12-24T13:22:52.617Z,89.51
2017-12-24T13:23:52.883Z,89.8